Latest Weather Observations for Leinster

IDW60801

Issued at 6:32 pm WST Monday 30 March 2015 (issued every 30 minutes, with the page automatically refreshed every 10 minutes)

About weather observations | Map of weather stations | Latest weather observations for WA | Other Formats
Station Details ID: 012314 Name: LEINSTER AERO Lat: -27.84 Lon: 120.70 Height: 497.0 m
Data from the previous 72 hours. | See also: Recent months at Leinster
Date/Time
WST
Temp
°C
App
Temp
°C
Dew
Point
Rel
Hum
%
Delta-T
°C
Wind Press
QNH
hPa
Press
MSL
hPa
Rain
since 9 am
mm
Dir
 
Spd
km/h
Gust
km/h
Spd
kts
Gust
kts
30/06:30pm 20.9 22.4 19.7 93 0.8 WNW 11 15 6 8 - - -
30/06:00pm 22.1 22.5 17.2 74 3.1 WNW 11 15 6 8 - - -
30/05:30pm 22.9 23.5 16.9 69 3.8 W 9 15 5 8 - - -
30/05:00pm 22.9 23.2 17.1 70 3.6 W 11 15 6 8 - - -
30/04:30pm 23.2 23.3 17.4 70 3.7 W 13 19 7 10 - - -
30/04:00pm 25.7 24.5 13.9 48 7.1 NW 13 17 7 9 - - -
30/03:30pm 27.0 25.0 12.6 41 8.6 WSW 15 19 8 10 - - -
30/03:00pm 26.9 25.3 12.9 42 8.4 WSW 13 17 7 9 - - -
30/02:30pm 27.3 25.2 12.5 40 8.8 WNW 15 24 8 13 - - -
30/02:00pm 28.3 25.0 10.9 34 10.1 NW 19 28 10 15 - - -
30/01:31pm 27.9 24.2 11.5 36 9.6 NNW 22 46 12 25 - - -
30/01:30pm 28.4 24.9 11.0 34 10.1 NNW 20 48 11 26 - - -
30/01:00pm 30.9 28.4 9.7 27 12.2 E 13 20 7 11 - - -
30/12:30pm 31.1 29.0 9.9 27 12.3 NE 11 17 6 9 - - -
30/12:00pm 31.4 27.9 10.2 27 12.4 ENE 19 28 10 15 - - -
30/11:30am 30.2 27.6 10.7 30 11.4 NE 15 20 8 11 - - -
30/11:00am 28.2 26.0 10.9 34 10.1 NE 13 20 7 11 - - -
30/10:30am 27.8 24.4 10.5 34 10.0 NE 19 24 10 13 - - -
30/10:00am 26.5 22.8 10.2 36 9.3 NNE 20 30 11 16 - - -
30/09:30am 26.4 21.9 10.1 36 9.3 NE 24 35 13 19 - - -
30/09:00am 25.5 21.5 10.5 39 8.6 NE 22 32 12 17 - - -
30/08:30am 24.4 20.8 10.7 42 7.8 NE 20 32 11 17 - - -
30/08:00am 23.2 19.7 10.9 46 7.0 NE 20 32 11 17 - - -
30/07:30am 22.3 19.1 11.4 50 6.2 ENE 19 24 10 13 - - -
30/07:00am 20.6 18.3 11.8 57 5.0 ENE 15 22 8 12 - - -
30/06:30am 19.7 17.4 11.7 60 4.5 ENE 15 19 8 10 - - -
30/06:00am 19.8 17.5 11.6 59 4.6 E 15 17 8 9 - - -
30/05:30am 20.3 17.9 11.5 57 5.0 ENE 15 19 8 10 - - -
30/05:00am 20.5 17.7 11.4 56 5.1 ENE 17 20 9 11 - - -
30/04:30am 20.7 18.3 11.3 55 5.3 ENE 15 20 8 11 - - -
30/04:00am 21.0 18.6 11.3 54 5.5 ENE 15 19 8 10 - - -
30/03:30am 20.7 18.3 11.3 55 5.3 ENE 15 19 8 10 - - -
30/03:00am 20.5 18.3 10.9 54 5.4 ENE 13 17 7 9 - - -
30/02:30am 20.5 18.2 10.6 53 5.5 ENE 13 15 7 8 - - -
30/02:00am 20.6 19.1 10.4 52 5.7 ENE 9 13 5 7 - - -
30/01:30am 20.6 19.1 10.4 52 5.7 ENE 9 11 5 6 - - -
30/01:00am 20.5 19.4 10.6 53 5.5 E 7 9 4 5 - - -
30/12:30am 21.1 20.0 10.6 51 5.9 E 7 9 4 5 - - -
30/12:00am 21.5 19.9 10.3 49 6.2 ENE 9 9 5 5 - - -
 
Date/Time
WST
Temp
°C
App
Temp
°C
Dew
Point
Rel
Hum
%
Delta-T
°C
Wind Press
QNH
hPa
Press
MSL
hPa
Rain
since 9 am
mm
Dir
 
Spd
km/h
Gust
km/h
Spd
kts
Gust
kts
29/11:30pm 22.2 20.5 10.0 46 6.8 ENE 9 11 5 6 - - -
29/11:00pm 22.4 20.8 10.2 46 6.8 E 9 11 5 6 - - -
29/10:30pm 22.7 21.5 10.2 45 7.0 E 7 9 4 5 - - -
29/10:00pm 23.5 22.2 9.9 42 7.6 E 7 9 4 5 - - -
29/09:30pm 24.2 22.1 9.8 40 8.1 E 11 15 6 8 - - -
29/09:00pm 24.5 22.4 9.6 39 8.3 E 11 15 6 8 - - -
29/08:30pm 25.2 23.0 9.5 37 8.8 E 11 15 6 8 - - -
29/08:00pm 25.5 23.8 9.7 37 8.9 E 9 15 5 8 - - -
29/07:30pm 26.0 23.8 9.4 35 9.3 E 11 15 6 8 - - -
29/07:00pm 26.5 24.7 9.4 34 9.6 E 9 13 5 7 - - -
29/06:30pm 27.4 25.7 9.7 33 10.1 ESE 9 17 5 9 - - -
29/06:00pm 28.1 26.4 9.9 32 10.4 E 9 13 5 7 - - -
29/05:30pm 28.7 26.6 9.9 31 10.8 E 11 17 6 9 - - -
29/05:00pm 29.2 27.1 9.8 30 11.1 E 11 15 6 8 - - -
29/04:30pm 29.5 28.1 9.6 29 11.4 E 7 17 4 9 - - -
29/04:00pm 29.6 26.7 9.7 29 11.4 NE 15 24 8 13 - - -
29/03:30pm 29.5 27.4 9.6 29 11.4 ENE 11 19 6 10 - - -
29/03:00pm 29.8 27.6 9.3 28 11.7 E 11 17 6 9 - - -
29/02:30pm 29.3 27.6 9.9 30 11.2 NNE 9 17 5 9 - - -
29/02:00pm 29.4 26.8 9.5 29 11.4 NNE 13 19 7 10 - - -
29/01:30pm 29.5 27.0 9.6 29 11.4 E 13 22 7 12 - - -
29/01:00pm 30.3 27.9 11.3 31 11.2 E 15 26 8 14 - - -
29/12:30pm 29.9 27.5 11.4 32 10.9 E 15 24 8 13 - - -
29/12:00pm 29.4 27.3 12.3 34 10.2 E 15 30 8 16 - - -
29/11:30am 28.6 26.0 12.1 36 9.8 E 17 24 9 13 - - -
29/11:00am 27.9 25.9 13.8 42 8.6 E 17 22 9 12 - - -
29/10:30am 26.8 24.8 13.9 45 7.8 ENE 17 26 9 14 - - -
29/10:00am 26.1 22.8 13.9 47 7.4 ENE 24 32 13 17 - - -
29/09:30am 25.2 23.3 14.3 50 6.6 E 17 28 9 15 - - -
29/09:00am 23.8 21.9 14.2 55 5.8 ENE 17 24 9 13 - - -
29/08:30am 22.6 20.3 14.2 59 5.0 E 19 28 10 15 - - -
29/08:00am 21.1 19.7 14.5 66 3.9 E 15 20 8 11 - - -
29/07:30am 19.7 18.8 13.6 68 3.6 E 11 15 6 8 - - -
29/07:00am 17.8 16.6 12.7 72 2.9 E 11 17 6 9 - - -
29/06:30am 17.1 16.1 12.2 73 2.8 E 9 13 5 7 - - -
29/06:00am 16.9 15.8 11.8 72 2.9 ESE 9 13 5 7 - - -
29/05:30am 17.0 16.1 11.5 70 3.1 ESE 7 11 4 6 - - -
29/05:00am 17.4 16.1 11.4 68 3.3 ESE 9 13 5 7 - - -
29/04:30am 17.0 16.0 11.1 68 3.3 SE 7 9 4 5 - - -
29/04:00am 17.4 16.0 11.0 66 3.5 SE 9 11 5 6 - - -
29/03:30am 18.1 17.1 11.0 63 3.9 ESE 7 9 4 5 - - -
29/03:00am 18.6 17.2 10.9 61 4.3 E 9 13 5 7 - - -
29/02:30am 18.6 17.1 10.7 60 4.4 E 9 13 5 7 - - -
29/02:00am 18.6 16.7 10.4 59 4.5 E 11 13 6 7 - - -
29/01:30am 18.8 17.5 9.8 56 4.9 ESE 7 11 4 6 - - -
29/01:00am 19.1 17.3 9.6 54 5.2 E 9 13 5 7 - - -
29/12:30am 19.3 17.9 9.5 53 5.3 ESE 7 11 4 6 - - -
29/12:00am 19.8 18.4 9.4 51 5.6 ESE 7 9 4 5 - - -
 
Date/Time
WST
Temp
°C
App
Temp
°C
Dew
Point
Rel
Hum
%
Delta-T
°C
Wind Press
QNH
hPa
Press
MSL
hPa
Rain
since 9 am
mm
Dir
 
Spd
km/h
Gust
km/h
Spd
kts
Gust
kts
28/11:30pm 20.4 18.1 9.0 48 6.2 ESE 11 15 6 8 - - -
28/11:00pm 21.0 18.2 8.6 45 6.7 ESE 13 19 7 10 - - -
28/10:30pm 21.6 18.2 7.8 41 7.4 SE 15 20 8 11 - - -
28/10:00pm 21.9 19.6 7.3 39 7.7 SE 9 11 5 6 - - -
28/09:30pm 21.9 19.9 7.0 38 7.8 SSE 7 9 4 5 - - -
28/09:00pm 22.6 20.2 6.8 36 8.3 SE 9 11 5 6 - - -
28/08:30pm 23.2 21.1 6.5 34 8.8 ESE 7 9 4 5 - - -
28/08:00pm 24.2 21.8 6.9 33 9.2 SE 9 13 5 7 - - -
28/07:30pm 24.9 21.6 6.6 31 9.7 SSE 13 17 7 9 - - -
28/07:00pm 25.4 22.5 6.6 30 10.0 SE 11 13 6 7 - - -
28/06:30pm 26.3 23.1 6.9 29 10.4 S 13 17 7 9 - - -
28/06:00pm 27.1 23.2 7.0 28 10.9 S 17 20 9 11 - - -
28/05:30pm 27.7 24.3 7.5 28 11.1 S 15 20 8 11 - - -
28/05:00pm 28.3 24.9 9.1 30 10.8 S 17 24 9 13 - - -
28/04:30pm 28.4 25.3 8.7 29 11.1 SSW 15 24 8 13 - - -
28/04:00pm 28.9 25.1 9.1 29 11.2 SW 19 28 10 15 - - -
28/03:30pm 28.5 25.1 7.7 27 11.5 SSW 15 20 8 11 - - -
28/03:00pm 29.4 25.8 8.5 27 11.7 SSW 17 28 9 15 - - -
28/02:30pm 29.0 26.1 8.1 27 11.6 SSW 13 19 7 10 - - -
28/02:00pm 29.0 25.9 8.7 28 11.4 SSW 15 33 8 18 - - -
28/01:30pm 28.5 25.4 8.7 29 11.1 SSW 15 24 8 13 - - -
28/01:00pm 28.1 25.5 9.4 31 10.6 SW 13 20 7 11 - - -
28/12:30pm 27.7 24.9 10.0 33 10.1 SSW 15 24 8 13 - - -
28/12:00pm 27.7 25.9 10.9 35 9.7 SW 11 19 6 10 - - -
28/11:30am 27.3 26.6 12.1 39 9.0 S 7 17 4 9 - - -
28/11:00am 26.5 26.3 13.6 45 7.8 ESE 7 13 4 7 - - -
28/10:30am 26.0 26.4 13.8 47 7.4 SE 4 11 2 6 - - -
28/10:00am 25.6 26.3 15.6 54 6.2 SSE 6 13 3 7 - - -
28/09:30am 24.2 24.2 15.1 56 5.6 WSW 9 13 5 7 - - -
28/09:00am 23.9 24.6 15.7 60 5.1 NW 6 13 3 7 - - -
28/08:30am 23.3 23.9 15.9 63 4.6 W 7 13 4 7 - - -
28/08:00am 22.0 22.8 15.8 68 3.8 NW 6 9 3 5 - - -
28/07:30am 19.8 20.7 16.1 79 2.3 NW 6 9 3 5 - - -
28/07:00am 17.2 19.1 15.7 91 0.9 CALM 0 0 0 0 - - -
28/06:30am 15.6 17.2 15.0 96 0.4 CALM 0 6 0 3 - - -
28/06:00am 15.9 17.5 14.9 94 0.6 CALM 0 6 0 3 - - -
28/05:30am 16.2 16.6 14.7 91 0.9 NE 6 11 3 6 - - -
28/05:00am 16.4 17.6 14.9 91 0.9 NE 2 9 1 5 - - -
28/04:30am 16.3 16.5 14.7 90 0.9 NE 7 9 4 5 - - -
28/04:00am 16.8 17.2 14.8 88 1.2 E 6 7 3 4 - - -
28/03:30am 16.7 17.9 14.9 89 1.1 ESE 2 6 1 3 - - -
28/03:00am 16.7 18.2 14.7 88 1.2 CALM 0 0 0 0 - - -
28/02:30am 17.1 17.9 14.9 87 1.3 S 4 6 2 3 - - -
28/02:00am 17.4 18.9 14.7 84 1.6 CALM 0 0 0 0 - - -
28/01:30am 17.6 18.7 14.7 83 1.7 NNE 2 9 1 5 - - -
28/01:00am 18.0 18.3 14.5 80 2.1 ENE 6 11 3 6 - - -
28/12:30am 18.5 18.7 14.6 78 2.3 ENE 7 7 4 4 - - -
28/12:00am 18.8 19.1 14.5 76 2.5 ENE 6 9 3 5 - - -
 
Date/Time
WST
Temp
°C
App
Temp
°C
Dew
Point
Rel
Hum
%
Delta-T
°C
Wind Press
QNH
hPa
Press
MSL
hPa
Rain
since 9 am
mm
Dir
 
Spd
km/h
Gust
km/h
Spd
kts
Gust
kts
27/11:30pm 19.0 19.6 14.3 74 2.8 E 4 6 2 3 - - -
27/11:00pm 19.6 19.9 14.4 72 3.1 S 6 7 3 4 - - -
27/10:30pm 20.0 20.1 14.4 70 3.3 SE 7 7 4 4 - - -
27/10:00pm 20.4 20.4 14.1 67 3.7 ESE 7 9 4 5 - - -
27/09:30pm 20.9 20.6 14.3 66 3.9 SE 9 11 5 6 - - -
27/09:00pm 21.3 21.1 14.7 66 4.0 ESE 9 13 5 7 - - -
27/08:30pm 21.9 21.4 14.8 64 4.3 E 11 15 6 8 - - -
27/08:00pm 22.7 22.7 15.3 63 4.5 E 9 15 5 8 - - -
27/07:30pm 23.1 24.9 15.4 62 4.7 CALM 0 4 0 2 - - -
27/07:00pm 23.2 23.5 15.0 60 5.0 NNW 7 11 4 6 - - -

Other Formats:

Comma delimited format used in spreadsheet applications
http://www.bom.gov.au/fwo/IDW60801/IDW60801.95448.axf

JavaScript Object Notation format (JSON) in row-major order
http://www.bom.gov.au/fwo/IDW60801/IDW60801.95448.json